Time;durP1;ratioP1;P1;durP2;ratioP2;P2;SDS_P1;SDS_P2;PMS_P1;PMS_P2;Temp;Humidity;BMP_temperature;BMP_pressure;BME280_temperature;BME280_humidity;BME280_pressure;Samples;Min_cycle;Max_cycle;Signal;HPM_P1;HPM_P2
2022/10/15 00:01:37;;;;;;;;;28.25;26.75;;;;;17.27;55.76;99587.19;5047254;28;8915;-74
2022/10/15 00:04:06;;;;;;;;;28.00;26.75;;;;;17.28;55.89;99586.28;5048617;28;8865;-73
2022/10/15 00:06:35;;;;;;;;;37.50;32.25;;;;;17.18;56.13;99580.38;5047693;28;8848;-76
2022/10/15 00:09:04;;;;;;;;;29.75;27.75;;;;;17.15;56.07;99576.06;5048698;28;8861;-73
2022/10/15 00:11:34;;;;;;;;;23.00;22.25;;;;;17.09;56.37;99589.41;5046952;28;8976;-75
2022/10/15 00:14:02;;;;;;;;;30.75;27.75;;;;;17.01;57.13;99583.47;5047600;28;8930;-74
2022/10/15 00:16:32;;;;;;;;;29.50;26.75;;;;;17.03;56.57;99586.06;5029352;28;8891;-73
2022/10/15 00:19:01;;;;;;;;;32.25;31.50;;;;;16.98;57.01;99591.47;5014200;28;8865;-74
2022/10/15 00:21:30;;;;;;;;;30.75;29.50;;;;;16.89;57.44;99586.44;5046731;28;8894;-74
2022/10/15 00:23:58;;;;;;;;;33.25;29.25;;;;;16.97;56.98;99583.59;5013262;28;8856;-75
2022/10/15 00:26:29;;;;;;;;;29.75;29.25;;;;;16.85;57.55;99585.63;5047771;28;8860;-74
2022/10/15 00:29:01;;;;;;;;;30.75;28.00;;;;;16.83;57.75;99576.91;5045683;28;9695;-75
2022/10/15 00:31:32;;;;;;;;;26.25;24.75;;;;;16.86;57.26;99581.22;5029230;28;8987;-75
2022/10/15 00:34:02;;;;;;;;;27.50;27.00;;;;;16.88;57.07;99579.41;5048444;28;8857;-73
2022/10/15 00:36:33;;;;;;;;;33.00;31.25;;;;;16.83;57.59;99576.91;5046913;28;8930;-75
2022/10/15 00:39:04;;;;;;;;;31.00;26.50;;;;;16.85;57.13;99571.63;5046876;28;8884;-73
2022/10/15 00:41:34;;;;;;;;;35.50;31.25;;;;;16.87;57.18;99572.44;5046555;28;8856;-74
2022/10/15 00:44:36;;;;;;;;;27.60;26.20;;;;;16.93;57.12;99564.38;5012689;28;8861;-73
2022/10/15 00:47:14;;;;;;;;;27.50;26.25;;;;;16.89;56.98;99560.09;5017462;28;8874;-76
2022/10/15 00:49:46;;;;;;;;;31.25;27.75;;;;;16.77;57.53;99567.38;5027565;28;8848;-76
2022/10/15 00:52:20;;;;;;;;;31.75;26.00;;;;;16.84;57.45;99565.50;5045393;28;8858;-74
2022/10/15 00:55:02;;;;;;;;;30.75;28.75;;;;;16.77;57.69;99564.72;5045292;28;9004;-74
2022/10/15 00:57:33;;;;;;;;;35.75;28.25;;;;;16.72;57.95;99566.63;5045547;28;8866;-73
2022/10/15 01:00:05;;;;;;;;;28.00;27.50;;;;;16.77;57.65;99563.88;5036215;28;9708;-73
2022/10/15 01:02:35;;;;;;;;;25.40;23.80;;;;;16.81;57.19;99557.63;5063073;28;9636;-74
2022/10/15 01:05:04;;;;;;;;;29.25;27.75;;;;;16.80;57.21;99562.94;5045714;28;8854;-75
2022/10/15 01:07:33;;;;;;;;;31.25;30.00;;;;;16.81;57.50;99560.25;5012234;28;8866;-75
2022/10/15 01:10:04;;;;;;;;;32.50;28.50;;;;;16.79;57.47;99562.06;5052678;28;9715;-73
2022/10/15 01:12:46;;;;;;;;;28.00;26.50;;;;;16.76;57.50;99565.63;5013116;28;8882;-75
2022/10/15 01:15:22;;;;;;;;;29.25;26.50;;;;;16.70;58.04;99554.41;5028992;28;8838;-74
2022/10/15 01:17:59;;;;;;;;;30.80;26.60;;;;;16.74;57.52;99558.69;5026922;28;8908;-75
2022/10/15 01:20:48;;;;;;;;;27.25;24.00;;;;;16.69;57.81;99553.53;5026435;28;8854;-74
2022/10/15 01:23:43;;;;;;;;;26.25;24.50;;;;;16.73;57.36;99562.25;5035750;28;8905;-73
2022/10/15 01:26:36;;;;;;;;;30.00;29.25;;;;;16.68;57.80;99556.22;5041599;28;8870;-73
2022/10/15 01:29:20;;;;;;;;;27.00;25.75;;;;;16.63;58.20;99564.22;5024700;28;8860;-72
2022/10/15 01:31:58;;;;;;;;;27.40;23.80;;;;;16.66;58.14;99561.50;4991352;28;8836;-72
2022/10/15 01:34:36;;;;;;;;;30.00;28.00;;;;;16.62;57.81;99556.38;5027284;28;8871;-73
2022/10/15 01:37:09;;;;;;;;;31.20;29.00;;;;;16.63;58.24;99555.44;5024286;28;8868;-75
2022/10/15 01:39:41;;;;;;;;;33.25;27.00;;;;;16.37;58.98;99559.63;5008368;28;8976;-75
2022/10/15 01:42:18;;;;;;;;;32.25;28.75;;;;;16.35;59.04;99561.38;5025778;28;8844;-74
2022/10/15 01:44:54;;;;;;;;;29.50;29.25;;;;;16.37;58.53;99554.34;5041299;28;8878;-73
2022/10/15 01:47:41;;;;;;;;;25.50;24.75;;;;;16.32;58.91;99557.06;4995970;28;8883;-74
2022/10/15 01:50:13;;;;;;;;;24.75;24.00;;;;;16.27;58.95;99556.31;5024182;28;8852;-74
2022/10/15 01:52:44;;;;;;;;;33.25;28.50;;;;;16.22;58.91;99554.69;5025556;28;8864;-74
2022/10/15 01:55:16;;;;;;;;;28.75;24.50;;;;;16.20;58.88;99556.50;4974842;28;8974;-73
2022/10/15 01:57:46;;;;;;;;;25.00;23.75;;;;;16.18;59.12;99551.25;5025480;28;8855;-75
2022/10/15 02:00:16;;;;;;;;;31.00;27.50;;;;;16.08;59.53;99569.03;5041136;28;8969;-76
2022/10/15 02:02:45;;;;;;;;;27.25;27.25;;;;;16.11;59.74;99554.97;5040401;28;8868;-75
2022/10/15 02:05:20;;;;;;;;;29.50;28.00;;;;;16.10;59.58;99553.22;5024335;28;8851;-74
2022/10/15 02:08:00;;;;;;;;;29.00;26.75;;;;;16.09;59.65;99557.63;5045336;28;9572;-73
2022/10/15 02:10:43;;;;;;;;;30.50;29.50;;;;;16.15;59.55;99544.31;5043294;28;9674;-74
2022/10/15 02:13:24;;;;;;;;;28.60;26.20;;;;;16.07;59.83;99545.41;4997286;28;8865;-74
2022/10/15 02:16:00;;;;;;;;;26.50;25.75;;;;;15.99;60.24;99556.06;5046562;28;8928;-74
2022/10/15 02:18:40;;;;;;;;;28.25;24.75;;;;;15.94;60.52;99553.56;5046646;28;8866;-72
2022/10/15 02:21:14;;;;;;;;;26.40;25.80;;;;;15.86;60.80;99549.34;5046191;28;8846;-75
2022/10/15 02:23:51;;;;;;;;;29.25;27.50;;;;;15.75;61.43;99552.25;5048225;28;8908;-75
2022/10/15 02:26:27;;;;;;;;;30.40;26.60;;;;;15.87;60.49;99551.09;5029442;28;8974;-73
2022/10/15 02:28:58;;;;;;;;;30.60;26.60;;;;;15.91;60.71;99544.88;5046165;28;8900;-73
2022/10/15 02:31:31;;;;;;;;;30.00;28.60;;;;;15.82;60.67;99545.06;5050965;28;8854;-75
2022/10/15 02:34:05;;;;;;;;;28.00;26.75;;;;;15.83;60.66;99554.72;5047184;28;8866;-74
2022/10/15 02:36:35;;;;;;;;;26.00;23.60;;;;;15.81;60.81;99546.84;5049918;28;9564;-73
2022/10/15 02:39:12;;;;;;;;;33.00;26.75;;;;;15.74;61.23;99548.72;5000033;28;8888;-75
2022/10/15 02:41:41;;;;;;;;;28.25;25.75;;;;;15.72;61.26;99544.38;5006597;28;8876;-74
2022/10/15 02:44:13;;;;;;;;;28.00;25.75;;;;;15.79;60.80;99551.28;5008360;28;10059;-74
2022/10/15 02:46:42;;;;;;;;;28.50;25.75;;;;;15.74;61.33;99553.13;5007322;28;8852;-74
2022/10/15 02:49:12;;;;;;;;;28.50;28.50;;;;;15.88;60.33;99556.34;4957967;28;9848;-74
2022/10/15 02:51:41;;;;;;;;;32.50;28.00;;;;;15.81;60.65;99549.47;5006460;28;8890;-74
2022/10/15 02:54:10;;;;;;;;;31.00;28.25;;;;;15.77;60.76;99543.41;5008960;28;8926;-74
2022/10/15 02:56:38;;;;;;;;;31.00;25.25;;;;;15.73;61.27;99541.75;4992281;28;8911;-73
2022/10/15 02:59:08;;;;;;;;;27.80;26.20;;;;;15.60;61.63;99543.75;5005967;28;8890;-72
2022/10/15 03:01:37;;;;;;;;;31.00;28.50;;;;;15.72;61.19;99542.59;4957817;28;8876;-73
2022/10/15 03:04:06;;;;;;;;;27.60;25.80;;;;;15.57;61.83;99548.19;5005447;28;8867;-75
2022/10/15 03:06:38;;;;;;;;;28.50;27.25;;;;;15.65;61.35;99551.56;4989661;28;8880;-74
2022/10/15 03:09:06;;;;;;;;;24.75;24.00;;;;;15.49;61.77;99555.38;5006021;28;8876;-75
2022/10/15 03:11:35;;;;;;;;;26.60;26.60;;;;;15.53;61.86;99554.41;5027226;28;8844;-75
2022/10/15 03:14:03;;;;;;;;;30.50;24.75;;;;;15.50;61.94;99558.00;5043859;28;8891;-73
2022/10/15 03:16:33;;;;;;;;;31.75;31.00;;;;;15.52;61.61;99550.94;5030618;28;8855;-73
2022/10/15 03:19:01;;;;;;;;;29.80;29.40;;;;;15.47;61.84;99538.78;5033170;28;9026;-75
2022/10/15 03:21:30;;;;;;;;;25.50;22.50;;;;;15.44;62.07;99547.56;5045094;28;8875;-74
2022/10/15 03:24:08;;;;;;;;;33.50;29.00;;;;;15.43;61.86;99540.59;5026702;28;8835;-75
2022/10/15 03:26:37;;;;;;;;;27.00;26.25;;;;;15.39;62.18;99550.31;5026983;28;9695;-75
2022/10/15 03:29:05;;;;;;;;;27.50;26.75;;;;;15.44;61.96;99546.72;5028369;28;8890;-72
2022/10/15 03:31:39;;;;;;;;;26.25;25.75;;;;;15.38;62.41;99547.72;5043356;28;9584;-76
2022/10/15 03:34:08;;;;;;;;;27.00;25.25;;;;;15.25;62.57;99540.97;5026543;28;8982;-73
2022/10/15 03:36:37;;;;;;;;;38.00;35.25;;;;;15.23;62.80;99546.25;5045159;28;8974;-75
2022/10/15 03:39:12;;;;;;;;;27.75;27.75;;;;;15.29;62.65;99548.78;5026650;28;9339;-75
2022/10/15 03:41:42;;;;;;;;;30.25;29.25;;;;;15.29;62.51;99545.25;5042880;28;8899;-75
2022/10/15 03:44:14;;;;;;;;;30.50;28.25;;;;;15.26;62.67;99555.84;5027125;28;8878;-73
2022/10/15 03:46:47;;;;;;;;;27.20;27.20;;;;;15.29;62.49;99554.03;5010013;28;8884;-74
2022/10/15 03:49:18;;;;;;;;;30.25;27.50;;;;;15.26;62.82;99558.47;5009414;28;8903;-74
2022/10/15 03:51:46;;;;;;;;;27.50;27.25;;;;;15.20;62.71;99557.69;5027780;28;8872;-74
2022/10/15 03:54:18;;;;;;;;;28.75;25.75;;;;;15.30;62.28;99561.00;5042744;28;9605;-74
2022/10/15 03:56:51;;;;;;;;;27.50;25.50;;;;;15.29;62.44;99558.41;5042079;28;8883;-74
2022/10/15 03:59:28;;;;;;;;;26.60;25.20;;;;;15.26;62.45;99555.84;5025999;28;8932;-74
2022/10/15 04:02:00;;;;;;;;;23.25;22.00;;;;;15.30;62.41;99561.00;4993793;28;8904;-74
2022/10/15 04:04:29;;;;;;;;;21.25;21.00;;;;;15.32;62.21;99560.97;5009386;28;8855;-74
2022/10/15 04:06:58;;;;;;;;;37.50;33.50;;;;;15.31;62.20;99556.59;5042374;28;9717;-75
2022/10/15 04:09:30;;;;;;;;;29.00;26.60;;;;;15.43;61.58;99571.28;5042490;28;8844;-74
2022/10/15 04:12:18;;;;;;;;;31.00;27.75;;;;;15.42;61.86;99574.78;5027309;28;8860;-74
2022/10/15 04:14:47;;;;;;;;;25.75;25.75;;;;;15.49;61.39;99568.53;5042348;28;8897;-75
2022/10/15 04:17:16;;;;;;;;;27.25;25.25;;;;;15.46;61.50;99560.69;5042424;28;8886;-76
2022/10/15 04:19:45;;;;;;;;;33.25;29.25;;;;;15.47;61.37;99563.28;5042319;28;9011;-73
2022/10/15 04:22:16;;;;;;;;;24.75;22.25;;;;;15.43;61.75;99573.91;4992480;28;8946;-74
2022/10/15 04:24:53;;;;;;;;;25.40;24.60;;;;;15.40;61.65;99564.31;5025755;28;8863;-74
2022/10/15 04:27:28;;;;;;;;;40.25;33.75;;;;;15.40;61.86;99566.94;5026306;28;8856;-73
2022/10/15 04:30:07;;;;;;;;;25.50;24.50;;;;;15.32;62.11;99571.50;5025557;28;8999;-73
2022/10/15 04:32:39;;;;;;;;;25.25;23.75;;;;;15.30;62.10;99574.13;5008836;28;9014;-74
2022/10/15 04:35:08;;;;;;;;;25.25;24.25;;;;;15.31;62.11;99570.63;5008276;28;8982;-74
2022/10/15 04:38:06;;;;;;;;;21.00;19.50;;;;;15.34;61.99;99575.81;5004469;28;8829;-74
2022/10/15 04:41:05;;;;;;;;;27.40;26.20;;;;;15.45;61.63;99588.75;4977918;28;8868;-75
2022/10/15 04:44:10;;;;;;;;;31.00;28.60;;;;;15.42;61.69;99582.69;4987541;28;9010;-73
2022/10/15 04:46:39;;;;;;;;;26.00;25.00;;;;;15.36;61.87;99575.78;4986565;28;8981;-74
2022/10/15 04:49:28;;;;;;;;;28.80;26.80;;;;;15.36;61.99;99571.38;4964601;28;8849;-74
2022/10/15 04:51:57;;;;;;;;;27.75;26.00;;;;;15.27;62.52;99571.56;4964963;28;8951;-75
2022/10/15 04:54:31;;;;;;;;;28.00;25.25;;;;;15.14;62.76;99570.06;4949079;28;8848;-74
2022/10/15 04:57:05;;;;;;;;;25.40;23.20;;;;;15.10;63.23;99571.88;4965579;28;8865;-74
2022/10/15 04:59:36;;;;;;;;;31.25;28.00;;;;;15.08;63.03;99563.16;4962554;28;8844;-75
2022/10/15 05:02:23;;;;;;;;;31.75;27.50;;;;;15.06;63.33;99559.69;4965077;28;8856;-74
2022/10/15 05:04:57;;;;;;;;;29.75;27.50;;;;;15.10;63.24;99560.50;4948990;28;8852;-74
2022/10/15 05:07:25;;;;;;;;;13.75;13.75;;;;;15.10;63.12;99556.13;4964783;28;8868;-75
2022/10/15 05:09:55;;;;;;;;;22.50;22.25;;;;;14.96;63.57;99560.78;4930543;28;8954;-74
2022/10/15 05:12:25;;;;;;;;;34.25;30.50;;;;;15.12;63.00;99566.59;4964500;28;8897;-74
2022/10/15 05:14:54;;;;;;;;;25.25;23.75;;;;;15.19;62.67;99565.59;4955957;28;8905;-74
2022/10/15 05:17:29;;;;;;;;;29.50;24.75;;;;;15.23;62.51;99572.50;4974837;28;8855;-77
2022/10/15 05:20:00;;;;;;;;;29.50;28.25;;;;;15.26;62.54;99576.88;4969992;28;8841;-75
2022/10/15 05:22:30;;;;;;;;;31.50;28.00;;;;;15.21;62.68;99575.16;4969060;28;9634;-74
2022/10/15 05:25:00;;;;;;;;;25.25;25.25;;;;;15.25;62.37;99581.22;4985694;28;8865;-75
2022/10/15 05:27:33;;;;;;;;;24.00;22.50;;;;;15.27;62.53;99576.81;5016689;28;8861;-76
2022/10/15 05:30:04;;;;;;;;;28.75;27.50;;;;;15.29;62.54;99580.31;5045643;28;8872;-75
2022/10/15 05:32:38;;;;;;;;;27.00;26.00;;;;;15.25;62.68;99578.59;5013824;28;8919;-74
2022/10/15 05:35:11;;;;;;;;;28.25;27.75;;;;;15.27;62.45;99579.44;5009530;28;8956;-74
2022/10/15 05:37:58;;;;;;;;;30.50;28.25;;;;;15.35;62.29;99585.44;5027261;28;8925;-74
2022/10/15 05:40:27;;;;;;;;;22.40;22.40;;;;;15.42;62.43;99585.31;4981258;28;8885;-74
2022/10/15 05:43:09;;;;;;;;;24.25;24.25;;;;;15.44;62.39;99586.13;5024220;28;8875;-76
2022/10/15 05:45:37;;;;;;;;;27.75;26.00;;;;;15.51;62.28;99582.50;5011360;28;8871;-74
2022/10/15 05:48:07;;;;;;;;;30.00;27.75;;;;;15.58;61.79;99582.34;5008224;28;8874;-75
2022/10/15 05:50:36;;;;;;;;;30.25;29.25;;;;;15.57;61.93;99588.47;5026100;28;8885;-75
2022/10/15 05:53:09;;;;;;;;;31.75;27.25;;;;;15.65;61.54;99590.97;5025330;28;9750;-76
2022/10/15 05:55:45;;;;;;;;;24.75;23.00;;;;;15.73;61.39;99590.81;5024920;28;9045;-74
2022/10/15 05:58:15;;;;;;;;;28.00;27.00;;;;;15.81;61.32;99599.44;5026456;28;8880;-75
2022/10/15 06:00:44;;;;;;;;;28.50;26.00;;;;;15.79;61.46;99601.22;5027834;28;9723;-75
2022/10/15 06:03:14;;;;;;;;;31.75;28.00;;;;;15.90;61.00;99608.91;5008153;28;8859;-73
2022/10/15 06:05:42;;;;;;;;;26.50;25.00;;;;;15.99;60.99;99613.94;5026118;28;8878;-73
2022/10/15 06:08:10;;;;;;;;;26.50;26.50;;;;;16.03;60.75;99612.13;5010510;28;8879;-75
2022/10/15 06:10:39;;;;;;;;;31.75;28.50;;;;;16.05;60.49;99612.94;5027041;28;8848;-73
2022/10/15 06:13:09;;;;;;;;;27.25;27.25;;;;;16.16;60.23;99617.09;5009706;28;8881;-74
2022/10/15 06:15:40;;;;;;;;;28.75;25.50;;;;;16.13;60.23;99626.81;5036411;28;8884;-73
2022/10/15 06:18:11;;;;;;;;;30.50;28.50;;;;;16.34;59.60;99623.69;5042662;28;8849;-72
2022/10/15 06:20:39;;;;;;;;;30.25;28.75;;;;;16.42;59.08;99625.28;5050533;28;8853;-74
2022/10/15 06:23:10;;;;;;;;;32.75;30.75;;;;;16.51;58.98;99623.28;5018214;28;8865;-73
2022/10/15 06:25:38;;;;;;;;;27.75;25.50;;;;;16.64;58.84;99631.78;5049002;28;9694;-73
2022/10/15 06:28:08;;;;;;;;;26.75;26.75;;;;;16.69;58.54;99636.91;5050637;28;8865;-75
2022/10/15 06:30:44;;;;;;;;;29.75;28.50;;;;;16.78;58.19;99636.69;5049671;28;8869;-74
2022/10/15 06:33:14;;;;;;;;;26.00;25.25;;;;;16.84;57.42;99638.34;5048752;28;8962;-75
2022/10/15 06:35:43;;;;;;;;;18.20;16.60;;;;;16.92;57.63;99636.41;5048720;28;10081;-74
2022/10/15 06:38:12;;;;;;;;;25.75;25.00;;;;;17.05;57.19;99643.09;5049241;28;8875;-73
2022/10/15 06:40:40;;;;;;;;;30.75;28.75;;;;;17.09;57.17;99647.38;5050497;28;8988;-74
2022/10/15 06:43:11;;;;;;;;;29.00;26.50;;;;;17.25;56.46;99646.97;5050608;28;8865;-74
2022/10/15 06:45:41;;;;;;;;;30.50;28.25;;;;;17.42;56.44;99647.38;5050345;28;8912;-75
2022/10/15 06:48:18;;;;;;;;;27.00;25.75;;;;;17.48;55.86;99646.34;5049963;28;8864;-75
2022/10/15 06:50:47;;;;;;;;;30.75;28.50;;;;;17.59;55.65;99646.94;5049292;28;8865;-73
2022/10/15 06:53:16;;;;;;;;;27.75;27.00;;;;;17.70;55.40;99649.28;5040624;28;8865;-74
2022/10/15 06:55:44;;;;;;;;;26.75;26.50;;;;;17.75;55.18;99650.03;5049270;28;9630;-74
2022/10/15 06:58:13;;;;;;;;;28.40;26.60;;;;;17.83;55.13;99642.75;5047305;28;8883;-74
2022/10/15 07:00:41;;;;;;;;;29.75;24.25;;;;;17.93;54.69;99648.66;5048148;28;8885;-74
2022/10/15 07:03:10;;;;;;;;;32.00;28.25;;;;;17.95;54.48;99652.09;5047584;28;8865;-75
2022/10/15 07:05:40;;;;;;;;;27.50;26.25;;;;;17.85;54.94;99648.88;5049580;28;8865;-74
2022/10/15 07:08:08;;;;;;;;;23.75;23.00;;;;;17.98;54.74;99649.38;5048225;28;8868;-74
2022/10/15 07:10:37;;;;;;;;;29.00;27.00;;;;;18.02;54.60;99652.81;5049015;28;8873;-75
2022/10/15 07:13:05;;;;;;;;;27.75;26.50;;;;;17.86;54.99;99655.00;5047360;28;8887;-73
2022/10/15 07:15:34;;;;;;;;;29.00;26.50;;;;;17.88;54.98;99659.34;5050188;28;8881;-80
2022/10/15 07:18:02;;;;;;;;;27.25;24.25;;;;;18.03;54.36;99654.50;5049372;28;9132;-76
2022/10/15 07:20:32;;;;;;;;;27.00;25.60;;;;;17.87;54.99;99651.47;5049693;28;8927;-79
2022/10/15 07:23:02;;;;;;;;;28.25;26.00;;;;;18.04;54.38;99654.47;5032118;28;9599;-79
2022/10/15 07:25:31;;;;;;;;;27.00;22.50;;;;;18.12;54.19;99643.69;5046740;28;8860;-78
2022/10/15 07:28:00;;;;;;;;;25.60;25.00;;;;;18.04;54.24;99636.00;5033524;28;9019;-77
2022/10/15 07:30:28;;;;;;;;;25.80;24.80;;;;;18.07;54.39;99640.31;5048993;28;8891;-78
2022/10/15 07:32:58;;;;;;;;;29.40;27.20;;;;;17.98;54.08;99645.88;5046701;28;9839;-77
2022/10/15 07:35:27;;;;;;;;;26.60;23.40;;;;;18.09;54.46;99638.50;5000749;28;8987;-81
2022/10/15 07:37:56;;;;;;;;;23.80;22.60;;;;;18.07;54.49;99640.31;5046918;28;8948;-78
2022/10/15 07:40:26;;;;;;;;;29.20;27.60;;;;;18.07;54.36;99641.19;5049415;28;8817;-78
2022/10/15 07:42:56;;;;;;;;;23.80;23.80;;;;;18.06;54.70;99646.53;5050082;28;8900;-79
2022/10/15 07:45:30;;;;;;;;;28.40;24.80;;;;;18.15;54.70;99646.25;5049378;28;8931;-79
2022/10/15 07:47:58;;;;;;;;;27.20;25.00;;;;;18.19;54.35;99650.53;5046300;28;8899;-79
2022/10/15 07:50:27;;;;;;;;;27.00;20.80;;;;;18.21;54.20;99661.91;5049964;28;8877;-79
2022/10/15 07:53:02;;;;;;;;;22.00;21.80;;;;;18.22;54.58;99660.09;5048195;28;9051;-77
2022/10/15 07:55:32;;;;;;;;;25.60;23.60;;;;;18.36;54.34;99660.56;5049420;28;8951;-79
2022/10/15 07:58:04;;;;;;;;;26.20;25.80;;;;;18.48;54.00;99662.81;5046159;28;8853;-79
2022/10/15 08:00:33;;;;;;;;;23.60;20.60;;;;;18.61;53.32;99652.72;5032376;28;9011;-78
2022/10/15 08:03:01;;;;;;;;;21.40;21.40;;;;;18.58;53.64;99644.94;5014031;28;9634;-84
2022/10/15 08:05:30;;;;;;;;;23.20;21.00;;;;;18.51;53.88;99652.16;5035627;28;8883;-78
2022/10/15 08:07:58;;;;;;;;;25.00;22.20;;;;;18.61;53.75;99658.03;5063966;28;8857;-81
2022/10/15 08:10:28;;;;;;;;;23.00;21.80;;;;;18.72;53.32;99649.75;5047963;28;8869;-78
2022/10/15 08:12:58;;;;;;;;;25.20;23.80;;;;;18.75;52.79;99648.78;5046849;28;8856;-78
2022/10/15 08:15:27;;;;;;;;;25.40;25.40;;;;;18.75;52.66;99651.44;5047774;28;8885;-77
2022/10/15 08:17:56;;;;;;;;;24.60;22.00;;;;;18.69;52.68;99641.91;5047581;28;8861;-77
2022/10/15 08:20:25;;;;;;;;;25.80;25.40;;;;;18.77;52.52;99652.25;5047405;28;8871;-82
2022/10/15 08:22:54;;;;;;;;;23.80;23.40;;;;;18.64;52.42;99651.78;5032713;28;8860;-78
2022/10/15 08:25:22;;;;;;;;;21.60;19.20;;;;;18.67;52.07;99643.75;4998982;28;8837;-81
2022/10/15 08:27:53;;;;;;;;;21.80;20.40;;;;;18.61;52.07;99641.31;5012995;28;8843;-78
2022/10/15 08:30:23;;;;;;;;;19.80;18.40;;;;;18.64;51.92;99644.72;5028641;28;8893;-77
2022/10/15 08:32:52;;;;;;;;;19.20;17.60;;;;;18.74;51.96;99649.72;5029914;28;8863;-78
2022/10/15 08:35:21;;;;;;;;;22.00;20.60;;;;;18.73;51.68;99640.03;5028569;28;8958;-78
2022/10/15 08:37:53;;;;;;;;;19.80;19.80;;;;;18.74;51.40;99649.72;4981454;28;9630;-81
2022/10/15 08:40:22;;;;;;;;;20.80;18.00;;;;;18.81;50.99;99640.69;5028047;28;8844;-80
2022/10/15 08:42:51;;;;;;;;;24.80;19.00;;;;;18.76;50.61;99642.59;5028602;28;8948;-77
2022/10/15 08:45:28;;;;;;;;;18.00;17.20;;;;;18.88;50.65;99645.75;5037362;28;8876;-79
2022/10/15 08:48:02;;;;;;;;;23.20;20.60;;;;;18.97;50.32;99648.97;5043973;28;8857;-78
2022/10/15 08:50:38;;;;;;;;;18.80;18.00;;;;;19.18;49.87;99650.88;5045392;28;8840;-77
2022/10/15 08:53:12;;;;;;;;;19.40;18.40;;;;;19.26;49.01;99647.97;5056288;28;8865;-77
2022/10/15 08:55:48;;;;;;;;;18.60;18.60;;;;;19.30;48.98;99646.97;5054301;28;8849;-80
2022/10/15 08:58:24;;;;;;;;;19.80;16.20;;;;;19.47;48.46;99652.53;5053049;28;8996;-80
2022/10/15 09:00:59;;;;;;;;;19.00;17.60;;;;;19.39;48.45;99645.78;5053681;28;8845;-76
2022/10/15 09:03:38;;;;;;;;;23.40;22.20;;;;;19.51;48.02;99641.81;5048137;28;8861;-79
2022/10/15 09:06:16;;;;;;;;;18.60;17.80;;;;;19.60;48.00;99644.16;5048918;28;8825;-78
2022/10/15 09:08:56;;;;;;;;;19.80;19.60;;;;;19.64;47.23;99649.28;5032259;28;8886;-77
2022/10/15 09:11:37;;;;;;;;;19.60;19.00;;;;;19.76;47.11;99648.00;5050037;28;8869;-78
2022/10/15 09:14:13;;;;;;;;;18.00;16.40;;;;;19.63;47.31;99649.34;5049583;28;8869;-78
2022/10/15 09:16:46;;;;;;;;;20.00;18.40;;;;;19.67;47.17;99657.09;5048471;28;8864;-79
2022/10/15 09:19:18;;;;;;;;;25.00;21.80;;;;;19.75;46.89;99656.00;5062344;28;8864;-78
2022/10/15 09:21:47;;;;;;;;;21.00;21.00;;;;;19.77;47.16;99656.78;5048374;28;9653;-77
2022/10/15 09:24:21;;;;;;;;;20.40;20.40;;;;;19.75;46.52;99658.63;5046968;28;8876;-78
2022/10/15 09:27:00;;;;;;;;;22.80;21.80;;;;;19.82;45.94;99653.06;5031424;28;8884;-81
2022/10/15 09:29:35;;;;;;;;;19.20;17.40;;;;;19.83;45.38;99661.88;5030782;28;8857;-76
2022/10/15 09:32:14;;;;;;;;;20.20;19.60;;;;;19.82;45.41;99655.72;5049008;28;8861;-78
2022/10/15 09:34:48;;;;;;;;;24.60;20.60;;;;;19.90;45.41;99655.44;5045712;28;8881;-80
2022/10/15 09:37:24;;;;;;;;;19.40;18.60;;;;;20.05;44.87;99652.19;5048333;28;8872;-80
2022/10/15 09:40:20;;;;;;;;;21.80;20.60;;;;;20.21;45.03;99646.34;5048414;28;8978;-78
2022/10/15 09:42:53;;;;;;;;;21.00;21.00;;;;;20.08;44.69;99631.84;4984397;28;8872;-78
2022/10/15 09:45:23;;;;;;;;;21.00;20.20;;;;;20.02;44.95;99646.19;5047694;28;8954;-77
2022/10/15 09:47:59;;;;;;;;;20.40;17.40;;;;;20.07;44.74;99628.31;5046287;28;8875;-80
2022/10/15 09:50:40;;;;;;;;;18.20;18.20;;;;;20.16;44.51;99635.91;5017930;28;8986;-79
2022/10/15 09:53:19;;;;;;;;;20.80;19.60;;;;;20.32;44.24;99640.59;5010899;28;8879;-80
2022/10/15 09:56:06;;;;;;;;;17.20;15.60;;;;;20.35;44.13;99641.34;5042959;28;8948;-77
2022/10/15 09:58:42;;;;;;;;;18.80;18.60;;;;;20.35;44.05;99640.50;4978660;28;8864;-77
2022/10/15 10:01:19;;;;;;;;;17.60;14.60;;;;;20.56;43.68;99642.28;5026270;28;8862;-79
2022/10/15 10:03:53;;;;;;;;;17.80;17.40;;;;;20.57;43.71;99646.69;5026535;28;8923;-79
2022/10/15 10:06:24;;;;;;;;;20.00;17.80;;;;;20.65;43.46;99643.75;5028261;28;8863;-76
2022/10/15 10:08:56;;;;;;;;;16.60;16.00;;;;;20.69;43.58;99640.03;5047684;28;8845;-80
2022/10/15 10:11:26;;;;;;;;;19.60;18.00;;;;;20.84;43.35;99639.41;5035546;28;8845;-76
2022/10/15 10:13:57;;;;;;;;;20.20;20.20;;;;;20.97;42.97;99646.88;5047732;28;8879;-80
2022/10/15 10:16:28;;;;;;;;;19.20;17.80;;;;;21.10;42.63;99637.47;5051043;28;8864;-77
2022/10/15 10:19:12;;;;;;;;;17.00;17.00;;;;;21.34;41.82;99637.31;5055032;28;8833;-77
2022/10/15 10:21:44;;;;;;;;;21.80;21.40;;;;;21.27;41.00;99636.75;5052224;28;8983;-80
2022/10/15 10:24:27;;;;;;;;;18.60;17.40;;;;;21.46;40.44;99634.19;5045578;28;8965;-79
2022/10/15 10:26:56;;;;;;;;;19.40;18.40;;;;;21.43;40.47;99637.78;5047974;28;8919;-79
2022/10/15 10:29:27;;;;;;;;;18.60;16.00;;;;;21.42;40.45;99629.91;5020877;28;8855;-78
2022/10/15 10:32:11;;;;;;;;;19.00;18.60;;;;;21.55;40.21;99627.59;5044797;28;8942;-78
2022/10/15 10:34:44;;;;;;;;;18.80;17.00;;;;;21.69;39.53;99619.88;5045842;28;8886;-79
2022/10/15 10:37:20;;;;;;;;;14.60;14.60;;;;;21.80;39.04;99632.69;5048292;28;8958;-76
2022/10/15 10:39:53;;;;;;;;;14.80;14.40;;;;;21.82;38.62;99627.31;5041643;28;8990;-71
2022/10/15 10:42:31;;;;;;;;;18.80;16.40;;;;;21.84;38.24;99618.34;5048942;28;8881;-79
2022/10/15 10:45:20;;;;;;;;;17.60;17.60;;;;;22.06;38.63;99623.53;5033351;28;9667;-80
2022/10/15 10:47:49;;;;;;;;;19.80;18.00;;;;;22.20;38.48;99612.25;5036229;28;8867;-79
2022/10/15 10:50:31;;;;;;;;;19.00;17.20;;;;;22.29;37.34;99614.50;5029850;28;8870;-82
2022/10/15 10:53:14;;;;;;;;;14.40;13.20;;;;;22.41;37.71;99612.19;5030146;28;8925;-78
2022/10/15 10:55:45;;;;;;;;;14.60;14.60;;;;;22.51;37.80;99608.13;5012763;28;8847;-80
2022/10/15 10:58:19;;;;;;;;;15.40;15.40;;;;;22.68;37.66;99607.31;4999849;28;8899;-82
2022/10/15 11:00:55;;;;;;;;;20.80;20.00;;;;;22.69;37.25;99614.34;5052199;28;8945;-81
2022/10/15 11:03:32;;;;;;;;;16.80;15.80;;;;;22.98;37.34;99605.75;5060189;28;8886;-80
2022/10/15 11:06:24;;;;;;;;;18.20;16.20;;;;;22.89;37.05;99600.94;5051774;28;8840;-78
2022/10/15 11:09:04;;;;;;;;;16.60;16.20;;;;;22.86;36.44;99603.72;4958367;28;8876;-79
2022/10/15 11:11:39;;;;;;;;;13.00;13.00;;;;;22.84;36.28;99597.63;4975167;28;9853;-80
2022/10/15 11:14:20;;;;;;;;;17.40;16.40;;;;;22.99;36.27;99606.63;4980787;28;9639;-77
2022/10/15 11:16:56;;;;;;;;;13.40;12.00;;;;;23.09;35.90;99596.41;4994447;28;8878;-81
2022/10/15 11:19:34;;;;;;;;;14.80;14.60;;;;;23.26;35.71;99592.88;4976293;28;8907;-78
2022/10/15 11:22:52;;;;;;;;;11.20;10.80;;;;;23.26;35.61;99587.56;4985925;28;8905;-79
2022/10/15 11:25:27;;;;;;;;;14.20;13.40;;;;;23.36;36.00;99583.47;5020819;28;8875;-78
2022/10/15 11:28:23;;;;;;;;;19.40;16.80;;;;;23.66;35.70;99585.44;5022181;28;8978;-76
2022/10/15 11:31:00;;;;;;;;;14.80;14.80;;;;;23.34;35.48;99585.34;5000226;28;8862;-79
2022/10/15 11:33:49;;;;;;;;;15.80;15.80;;;;;23.65;34.97;99581.91;5012524;28;8888;-78
2022/10/15 11:36:33;;;;;;;;;15.40;14.40;;;;;23.86;34.82;99585.25;4970579;28;8895;-79
2022/10/15 11:39:27;;;;;;;;;14.20;13.40;;;;;23.99;34.52;99593.44;4995951;28;8893;-78
2022/10/15 11:42:08;;;;;;;;;15.40;14.40;;;;;24.11;34.39;99583.88;4990391;28;9027;-79
2022/10/15 11:44:55;;;;;;;;;15.80;15.40;;;;;24.11;34.09;99584.75;4985679;28;8866;-79
2022/10/15 11:47:36;;;;;;;;;15.40;14.00;;;;;24.02;34.51;99585.25;5045309;28;8857;-79
2022/10/15 11:50:17;;;;;;;;;18.20;14.20;;;;;24.22;34.62;99580.63;5050241;28;8852;-78
2022/10/15 11:53:04;;;;;;;;;15.80;14.00;;;;;24.15;34.70;99584.59;5050573;28;8950;-79
2022/10/15 11:55:41;;;;;;;;;16.20;16.20;;;;;24.09;34.43;99581.31;5049033;28;8896;-78